Lavinia, Minnesota
Current Conditions -  °F | °C
As of 2:53 PM on Thursday 18 Dec 2014 (Local Time) from KHIB Reporting Station
Overcast Overcast  
Wind Chill: 23°   Ceiling: 1900
Heat Index: 23°   Visibility: 10mi
Dew Point: 17°   Wind: 0mph
Humidity: 78%   Direction: NA
Pressure: 30.22"   Gusts: NA
Location:  47.4158°N, 93.0053°W
Report Text: KHIB 182053Z AUTO 00000KT 10SM OVC019 M05/M08 A3022 RMK AO2 SLP263 T10501083 55009
Loading
Personal Weather Stations






























Interactive Weather Map New forecast layout! Learn more

10-Day Weather Forecast

Advertisements
Track Severe Weather on mobile